Olympic Valley, California
Current Conditions -  °F | °C
As of 10:35 PM on Friday 19 Dec 2014 (Local Time) from KTRK Reporting Station
Light Rain Light Rain  
Wind Chill: 26°   Ceiling: 4200
Heat Index: 32°   Visibility: 10mi
Dew Point: 32°   Wind: 7mph
Humidity: 100%   Direction: 160°SSE
Pressure: 30.16"   Gusts: NA
Location:  39.18°N, 120.22°W
Report Text: KTRK 200635Z AUTO 16006KT 10SM -RA SCT016 BKN042 OVC070 00/00 A3016 RMK AO2
Loading
Personal Weather Stations






























Interactive Weather Map New forecast layout! Learn more

10-Day Weather Forecast

Advertisements
Track Severe Weather on mobile